Time;durP1;ratioP1;P1;durP2;ratioP2;P2;SDS_P1;SDS_P2;PMS_P1;PMS_P2;Temp;Humidity;BMP_temperature;BMP_pressure;BME280_temperature;BME280_humidity;BME280_pressure;Samples;Min_cycle;Max_cycle;Signal;HPM_P1;HPM_P2
2021/12/27 00:02:55;;;;;;;69.57;27.90;;;-8.40;99.90;;;;;;10276001;28;20046;-84
2021/12/27 00:07:57;;;;;;;72.80;25.10;;;-8.30;99.90;;;;;;10264790;28;20111;-87
2021/12/27 00:12:58;;;;;;;82.50;26.50;;;-8.30;99.90;;;;;;10271492;28;20102;-85
2021/12/27 00:17:59;;;;;;;68.67;25.63;;;-8.20;99.90;;;;;;10256477;28;20487;-84
2021/12/27 00:23:00;;;;;;;72.00;28.03;;;-8.20;99.90;;;;;;10263601;28;20043;-84
2021/12/27 00:28:01;;;;;;;81.87;27.23;;;-8.10;99.90;;;;;;10234308;28;20057;-85
2021/12/27 00:33:01;;;;;;;64.30;24.07;;;-8.10;99.90;;;;;;10258527;28;20434;-88
2021/12/27 00:38:03;;;;;;;64.63;26.07;;;-8.10;99.90;;;;;;10229831;29;20031;-84
2021/12/27 00:43:04;;;;;;;63.50;24.47;;;-8.10;99.90;;;;;;10246514;28;20078;-84
2021/12/27 00:48:04;;;;;;;65.70;25.10;;;-8.10;99.90;;;;;;10248513;28;20082;-87
2021/12/27 00:53:05;;;;;;;65.70;23.27;;;-8.00;99.90;;;;;;10249479;28;20035;-84
2021/12/27 00:58:06;;;;;;;51.90;22.10;;;-7.90;99.90;;;;;;10247702;28;20070;-87
2021/12/27 01:03:07;;;;;;;56.43;20.67;;;-7.90;99.90;;;;;;10256134;28;20050;-84
2021/12/27 01:08:07;;;;;;;56.53;21.37;;;-7.80;99.90;;;;;;10253928;28;20097;-86
2021/12/27 01:18:20;;;;;;;82.13;28.40;;;-7.80;99.90;;;;;;10255907;28;20043;-89
2021/12/27 01:23:20;;;;;;;77.70;26.40;;;-7.90;99.90;;;;;;10244193;28;20026;-85
2021/12/27 01:28:21;;;;;;;71.00;24.17;;;-8.10;99.90;;;;;;10278829;28;20032;-84
2021/12/27 01:33:23;;;;;;;63.50;24.17;;;-8.10;99.90;;;;;;10244793;28;20126;-85
2021/12/27 01:38:24;;;;;;;79.90;27.47;;;-8.20;99.90;;;;;;10235832;29;20023;-90
2021/12/27 01:43:27;;;;;;;69.73;25.90;;;-8.30;99.90;;;;;;10243307;29;20454;-87
2021/12/27 01:48:32;;;;;;;70.77;24.93;;;-8.30;99.90;;;;;;10273355;28;20158;-84
2021/12/27 01:53:35;;;;;;;66.65;24.75;;;-8.30;99.90;;;;;;10267318;28;20534;-85
2021/12/27 01:58:37;;;;;;;60.30;22.40;;;-8.30;99.90;;;;;;10260465;28;20031;-85
2021/12/27 02:03:40;;;;;;;55.70;19.03;;;-8.20;99.90;;;;;;10254100;28;20029;-85
2021/12/27 02:08:43;;;;;;;59.80;20.67;;;-8.10;99.90;;;;;;10237908;28;20050;-84
2021/12/27 02:13:45;;;;;;;57.17;21.17;;;-8.00;99.90;;;;;;10274122;28;20038;-84
2021/12/27 02:18:48;;;;;;;49.57;18.10;;;-7.80;99.90;;;;;;10279758;28;20038;-84
2021/12/27 02:23:50;;;;;;;40.40;16.63;;;-7.80;99.90;;;;;;10251875;28;20055;-84
2021/12/27 02:28:51;;;;;;;42.13;16.23;;;-7.70;99.90;;;;;;10250778;28;20110;-84
2021/12/27 02:33:51;;;;;;;45.40;15.83;;;-7.60;99.90;;;;;;10251409;28;20045;-84
2021/12/27 02:38:52;;;;;;;48.77;17.47;;;-7.50;99.90;;;;;;10255576;28;20033;-84
2021/12/27 02:43:53;;;;;;;41.30;18.80;;;-7.50;99.90;;;;;;10289882;28;20038;-89
2021/12/27 02:48:53;;;;;;;45.33;16.40;;;-7.50;99.90;;;;;;10260853;28;20051;-85
2021/12/27 02:53:54;;;;;;;48.37;17.57;;;-7.50;99.90;;;;;;10250551;28;20043;-88
2021/12/27 02:58:55;;;;;;;45.77;18.23;;;-7.50;99.90;;;;;;10235410;29;20118;-84
2021/12/27 03:03:57;;;;;;;40.60;16.47;;;-7.50;99.90;;;;;;10245602;28;20054;-85
2021/12/27 03:08:58;;;;;;;34.23;15.20;;;-7.50;99.90;;;;;;10235371;28;20430;-84
2021/12/27 03:13:58;;;;;;;35.00;14.50;;;-7.50;99.90;;;;;;10240868;28;20122;-88
2021/12/27 03:18:59;;;;;;;40.97;15.40;;;-7.40;99.90;;;;;;10249396;28;20031;-84
2021/12/27 03:24:00;;;;;;;43.13;16.03;;;-7.40;99.90;;;;;;10244475;28;20053;-86
2021/12/27 03:29:00;;;;;;;32.00;13.67;;;-7.30;99.90;;;;;;10265317;28;20427;-86
2021/12/27 03:34:01;;;;;;;37.33;13.57;;;-7.20;99.90;;;;;;10232792;28;20043;-84
2021/12/27 03:39:02;;;;;;;40.13;13.00;;;-7.20;99.90;;;;;;10230893;29;20046;-86
2021/12/27 03:44:03;;;;;;;36.37;13.70;;;-7.10;99.90;;;;;;10248808;29;20039;-88
2021/12/27 03:49:04;;;;;;;33.70;13.67;;;-7.00;99.90;;;;;;10261778;28;20145;-85
2021/12/27 03:54:05;;;;;;;37.37;14.53;;;-7.00;99.90;;;;;;10269798;28;20049;-85
2021/12/27 03:59:24;;;;;;;45.60;17.03;;;-7.00;99.90;;;;;;10252610;28;20031;-83
2021/12/27 04:04:27;;;;;;;40.70;17.50;;;-7.00;99.90;;;;;;10227627;28;20043;-90
2021/12/27 04:09:29;;;;;;;128.70;30.40;;;-7.00;99.90;;;;;;10247929;29;20023;-85
2021/12/27 04:14:30;;;;;;;51.13;18.77;;;-7.00;99.90;;;;;;10266377;28;20053;-86
2021/12/27 04:19:31;;;;;;;202.77;61.77;;;-7.00;99.90;;;;;;10256008;28;20050;-90
2021/12/27 04:24:32;;;;;;;90.83;29.70;;;-7.00;99.90;;;;;;10230771;28;20554;-85
2021/12/27 04:29:32;;;;;;;51.47;20.43;;;-7.10;99.90;;;;;;10247222;29;20071;-85
2021/12/27 04:34:33;;;;;;;72.80;25.03;;;-7.20;99.90;;;;;;10246457;28;20047;-82
2021/12/27 04:39:34;;;;;;;81.77;28.77;;;-7.40;99.90;;;;;;10246652;29;20027;-86
2021/12/27 04:44:34;;;;;;;113.97;43.80;;;-7.60;99.90;;;;;;10247447;28;20101;-87
2021/12/27 04:49:36;;;;;;;107.17;47.47;;;-7.70;99.90;;;;;;10232584;28;20055;-83
2021/12/27 04:54:37;;;;;;;76.63;32.00;;;-7.60;99.90;;;;;;10256154;28;20122;-83
2021/12/27 04:59:38;;;;;;;84.50;32.13;;;-7.60;99.90;;;;;;10241138;28;20018;-81
2021/12/27 05:04:39;;;;;;;100.00;33.87;;;-7.50;99.90;;;;;;10263462;28;20031;-84
2021/12/27 05:09:40;;;;;;;98.50;38.23;;;-7.50;99.90;;;;;;10263934;28;20033;-84
2021/12/27 05:14:40;;;;;;;113.43;42.20;;;-7.50;99.90;;;;;;10244977;28;20776;-85
2021/12/27 05:19:41;;;;;;;89.00;33.77;;;-7.40;99.90;;;;;;10253917;28;20163;-83
2021/12/27 05:24:42;;;;;;;89.30;33.10;;;-7.40;99.90;;;;;;10257313;28;20030;-84
2021/12/27 05:29:42;;;;;;;126.83;48.33;;;-7.50;99.90;;;;;;10293412;28;20057;-81
2021/12/27 05:34:43;;;;;;;101.53;38.53;;;-7.50;99.90;;;;;;10272811;28;20035;-84
2021/12/27 05:39:44;;;;;;;162.97;63.30;;;-7.60;99.90;;;;;;10249550;28;20139;-84
2021/12/27 05:44:45;;;;;;;144.13;51.57;;;-7.70;99.90;;;;;;10247355;29;20031;-85
2021/12/27 05:49:45;;;;;;;216.70;75.77;;;-7.70;99.90;;;;;;10245520;28;20058;-84
2021/12/27 05:54:46;;;;;;;221.47;71.50;;;-7.70;99.90;;;;;;10252659;29;20475;-84
2021/12/27 05:59:47;;;;;;;192.03;63.50;;;-7.80;99.90;;;;;;10250757;28;20435;-83
2021/12/27 06:04:48;;;;;;;187.73;64.50;;;-7.80;99.90;;;;;;10248000;29;20047;-83
2021/12/27 06:09:49;;;;;;;194.63;59.87;;;-7.80;99.90;;;;;;10251918;28;20038;-86
2021/12/27 06:14:49;;;;;;;285.00;79.53;;;-7.90;99.90;;;;;;10251480;29;20696;-84
2021/12/27 06:19:50;;;;;;;199.33;60.03;;;-8.00;99.90;;;;;;10252103;28;20027;-83
2021/12/27 06:24:51;;;;;;;145.90;49.07;;;-8.00;99.90;;;;;;10251603;29;20039;-85
2021/12/27 06:29:51;;;;;;;169.70;52.87;;;-8.10;99.90;;;;;;10251096;29;20035;-86
2021/12/27 06:34:52;;;;;;;306.63;87.47;;;-8.20;99.90;;;;;;10234456;29;20054;-90
2021/12/27 06:39:53;;;;;;;148.67;41.97;;;-8.40;99.90;;;;;;10251049;29;20027;-84
2021/12/27 06:44:53;;;;;;;123.83;41.73;;;-8.50;99.90;;;;;;10250985;29;20404;-88
2021/12/27 06:49:54;;;;;;;130.23;42.30;;;-8.40;99.90;;;;;;10248588;29;20093;-83
2021/12/27 06:54:55;;;;;;;109.43;37.10;;;-8.40;99.90;;;;;;10249623;29;20039;-83
2021/12/27 06:59:56;;;;;;;98.47;32.30;;;-8.50;99.90;;;;;;10249557;29;20053;-87
2021/12/27 07:04:57;;;;;;;139.30;46.27;;;-8.40;99.90;;;;;;10249657;29;20034;-84
2021/12/27 07:09:58;;;;;;;87.23;31.87;;;-8.30;99.90;;;;;;10249514;29;20038;-83
2021/12/27 07:14:58;;;;;;;105.37;34.37;;;-8.20;99.90;;;;;;10249011;28;20174;-83
2021/12/27 07:19:59;;;;;;;95.33;30.40;;;-8.10;99.90;;;;;;10249751;28;20028;-83
2021/12/27 07:25:31;;;;;;;79.17;26.27;;;-8.00;99.90;;;;;;10248902;29;20027;-84
2021/12/27 07:30:32;;;;;;;146.17;53.37;;;-7.90;99.90;;;;;;10231885;29;20171;-84
2021/12/27 07:35:33;;;;;;;132.00;48.70;;;-7.90;99.90;;;;;;10248241;29;20054;-84
2021/12/27 07:40:34;;;;;;;223.33;80.53;;;-7.80;99.90;;;;;;10248919;29;20023;-83
2021/12/27 07:45:35;;;;;;;318.33;110.10;;;-7.60;99.90;;;;;;10248354;29;20414;-89
2021/12/27 07:57:00;;;;;;;192.73;62.33;;;-7.30;99.90;;;;;;10060329;29;20391;-85
2021/12/27 08:02:01;;;;;;;135.13;44.03;;;-7.20;99.90;;;;;;10063126;29;20048;-88
2021/12/27 08:07:03;;;;;;;138.87;42.70;;;-7.10;99.90;;;;;;10190660;28;20740;-82
2021/12/27 08:12:05;;;;;;;126.60;43.13;;;-7.00;99.90;;;;;;10226560;29;20124;-82
2021/12/27 08:17:06;;;;;;;111.97;41.53;;;-6.90;99.90;;;;;;10236429;28;20023;-85
2021/12/27 08:22:07;;;;;;;127.23;47.70;;;-6.80;99.90;;;;;;10235368;29;20039;-83
2021/12/27 08:27:08;;;;;;;261.63;105.07;;;-6.70;99.90;;;;;;10241650;29;20588;-86
2021/12/27 08:32:08;;;;;;;130.47;51.63;;;-6.60;99.90;;;;;;10245420;29;20132;-85
2021/12/27 08:37:10;;;;;;;118.70;44.27;;;-6.50;99.90;;;;;;10233083;28;20361;-82
2021/12/27 08:42:11;;;;;;;128.97;47.37;;;-6.20;99.90;;;;;;10235347;28;20086;-86
2021/12/27 08:47:14;;;;;;;141.87;52.00;;;-5.90;99.90;;;;;;10235600;28;20125;-82
2021/12/27 08:53:08;;;;;;;133.17;52.63;;;-5.70;99.90;;;;;;10218592;29;20035;-83
2021/12/27 08:58:14;;;;;;;96.80;35.57;;;-5.70;99.90;;;;;;10229216;29;20448;-90
2021/12/27 09:03:15;;;;;;;115.43;45.17;;;-5.80;99.90;;;;;;10218253;29;20036;-83
2021/12/27 09:08:16;;;;;;;200.40;60.73;;;-5.70;99.90;;;;;;10223467;29;20641;-83
2021/12/27 09:13:17;;;;;;;131.90;56.80;;;-5.60;99.90;;;;;;10225731;29;20122;-85
2021/12/27 09:18:20;;;;;;;126.57;43.50;;;-5.40;99.90;;;;;;10221371;29;20046;-83
2021/12/27 09:23:21;;;;;;;100.80;33.07;;;-5.30;99.90;;;;;;10209869;29;20029;-90
2021/12/27 09:28:22;;;;;;;107.87;41.17;;;-5.20;99.90;;;;;;10219763;29;20531;-88
2021/12/27 09:33:23;;;;;;;223.43;71.57;;;-5.00;99.90;;;;;;10229137;28;20042;-83
2021/12/27 09:38:24;;;;;;;125.17;45.87;;;-4.90;99.90;;;;;;10237290;29;20027;-83
2021/12/27 09:43:26;;;;;;;87.27;32.20;;;-4.90;99.90;;;;;;10244825;29;20034;-82
2021/12/27 09:48:27;;;;;;;83.80;35.07;;;-4.90;99.90;;;;;;10236502;29;20095;-86
2021/12/27 09:53:28;;;;;;;96.13;33.23;;;-4.90;99.90;;;;;;10224218;29;20109;-83
2021/12/27 09:58:29;;;;;;;411.47;120.37;;;-4.90;99.90;;;;;;10240645;29;20082;-83
2021/12/27 10:03:31;;;;;;;266.87;85.70;;;-5.00;99.90;;;;;;10244175;29;20443;-82
2021/12/27 10:08:32;;;;;;;198.97;59.97;;;-5.00;99.90;;;;;;10232211;29;20495;-87
2021/12/27 10:13:33;;;;;;;353.73;109.53;;;-5.10;99.90;;;;;;10244808;29;20035;-83
2021/12/27 10:18:37;;;;;;;135.63;50.33;;;-5.20;99.90;;;;;;10249067;28;20042;-81
2021/12/27 10:23:38;;;;;;;98.97;35.33;;;-5.10;99.90;;;;;;10249180;29;20073;-83
2021/12/27 10:34:52;;;;;;;333.33;112.97;;;-5.00;99.90;;;;;;10249158;29;20471;-85
2021/12/27 10:39:53;;;;;;;167.90;60.23;;;-4.80;99.90;;;;;;10219115;29;20034;-86
2021/12/27 10:45:19;;;;;;;128.73;47.77;;;-4.60;99.90;;;;;;10232475;28;20038;-83
2021/12/27 10:50:26;;;;;;;132.77;51.15;;;-4.30;99.90;;;;;;10231827;29;20047;-87
2021/12/27 10:55:38;;;;;;;258.17;105.73;;;-4.00;99.90;;;;;;10242140;29;20035;-84
2021/12/27 11:00:39;;;;;;;95.00;38.17;;;-3.90;99.90;;;;;;10247982;29;20562;-84
2021/12/27 11:05:40;;;;;;;110.53;43.27;;;-3.90;99.90;;;;;;10229704;29;20034;-83
2021/12/27 11:10:40;;;;;;;101.43;42.23;;;-3.70;99.90;;;;;;10230157;29;20505;-83
2021/12/27 11:15:42;;;;;;;108.37;44.77;;;-3.30;99.90;;;;;;10247549;29;20046;-83
2021/12/27 11:20:50;;;;;;;111.30;44.03;;;-3.10;99.90;;;;;;10248967;28;20117;-85
2021/12/27 11:26:01;;;;;;;97.80;37.03;;;-3.10;99.90;;;;;;10240750;29;20044;-83
2021/12/27 11:31:24;;;;;;;116.13;42.93;;;-3.30;99.90;;;;;;10234276;29;20077;-86
2021/12/27 11:36:29;;;;;;;86.60;37.30;;;-3.50;99.90;;;;;;10225597;29;20035;-85
2021/12/27 11:41:36;;;;;;;98.72;39.42;;;-3.40;99.90;;;;;;10248327;29;20111;-83
2021/12/27 11:46:57;;;;;;;162.60;88.77;;;-3.30;99.90;;;;;;10248121;28;20077;-83
2021/12/27 11:52:27;;;;;;;240.67;119.13;;;-3.30;99.90;;;;;;10242271;28;20043;-83
2021/12/27 11:57:43;;;;;;;220.53;106.57;;;-3.30;99.90;;;;;;10247450;28;20042;-83
2021/12/27 12:02:45;;;;;;;122.90;56.83;;;-3.30;99.90;;;;;;10247895;28;20035;-83
2021/12/27 12:07:50;;;;;;;117.87;44.73;;;-3.70;99.90;;;;;;10247893;28;20031;-83
2021/12/27 12:13:26;;;;;;;107.03;42.27;;;-3.80;99.90;;;;;;10242732;28;20035;-83
2021/12/27 12:18:28;;;;;;;75.50;32.90;;;-3.60;99.90;;;;;;10234370;28;20030;-83
2021/12/27 12:23:29;;;;;;;95.10;38.33;;;-3.80;99.90;;;;;;10287122;28;20027;-83
2021/12/27 12:28:30;;;;;;;78.43;32.50;;;-3.90;99.90;;;;;;10287065;28;20026;-83
2021/12/27 12:33:31;;;;;;;95.93;43.77;;;-3.90;99.90;;;;;;10269467;28;20077;-82
2021/12/27 12:38:38;;;;;;;138.93;54.23;;;-4.10;99.90;;;;;;10286528;28;20050;-84
2021/12/27 12:43:38;;;;;;;139.30;55.13;;;-4.10;99.90;;;;;;10248572;28;20042;-88
2021/12/27 12:48:39;;;;;;;116.23;45.33;;;-4.00;99.90;;;;;;10247182;29;20051;-83
2021/12/27 12:53:41;;;;;;;92.73;38.70;;;-4.00;99.90;;;;;;10246615;29;20055;-83
2021/12/27 12:58:41;;;;;;;98.23;38.37;;;-4.10;99.90;;;;;;10233492;29;20166;-85
2021/12/27 13:03:45;;;;;;;85.37;34.83;;;-4.40;99.90;;;;;;10246532;29;20031;-86
2021/12/27 13:08:53;;;;;;;79.77;33.73;;;-4.60;99.90;;;;;;10246596;28;20027;-84
2021/12/27 13:13:59;;;;;;;99.77;38.37;;;-5.00;99.90;;;;;;10237051;29;20035;-82
2021/12/27 13:19:08;;;;;;;100.33;43.43;;;-5.10;99.90;;;;;;10250422;28;20062;-83
2021/12/27 13:24:09;;;;;;;219.20;80.13;;;-5.20;99.90;;;;;;10251440;28;20034;-84
2021/12/27 13:29:09;;;;;;;357.97;126.83;;;-5.30;99.90;;;;;;10240833;28;20027;-83
2021/12/27 13:34:10;;;;;;;287.77;90.27;;;-5.30;99.90;;;;;;10225295;29;20039;-85
2021/12/27 13:39:20;;;;;;;305.87;105.93;;;-5.30;99.90;;;;;;10224815;29;20513;-86
2021/12/27 13:44:28;;;;;;;377.73;118.27;;;-5.30;99.90;;;;;;10225192;28;20051;-85
2021/12/27 13:49:29;;;;;;;433.87;147.80;;;-5.30;99.90;;;;;;10225335;29;20094;-83
2021/12/27 13:54:53;;;;;;;443.47;151.37;;;-5.40;99.90;;;;;;10248965;29;20118;-86
2021/12/27 13:59:56;;;;;;;134.13;48.67;;;-5.40;99.90;;;;;;10229134;28;20040;-85
2021/12/27 14:04:59;;;;;;;111.67;43.47;;;-5.40;99.90;;;;;;10247497;29;20035;-84
2021/12/27 14:10:01;;;;;;;145.63;55.33;;;-5.40;99.90;;;;;;10234482;29;20036;-83
2021/12/27 14:15:06;;;;;;;234.57;91.57;;;-5.40;99.90;;;;;;10233185;28;20070;-87
2021/12/27 14:20:12;;;;;;;269.02;89.32;;;-5.40;99.90;;;;;;10244908;28;20023;-84
2021/12/27 14:25:20;;;;;;;211.57;73.67;;;-5.50;99.90;;;;;;10237820;29;20043;-83
2021/12/27 14:30:27;;;;;;;212.97;69.57;;;-5.60;99.90;;;;;;10250899;29;20030;-84
2021/12/27 14:35:45;;;;;;;244.77;75.60;;;-5.70;99.90;;;;;;10249884;29;20122;-83
2021/12/27 14:40:56;;;;;;;160.93;51.93;;;-5.70;99.90;;;;;;10250293;29;20028;-88
2021/12/27 14:45:58;;;;;;;189.10;62.23;;;-5.80;99.90;;;;;;10248762;29;20035;-86
2021/12/27 14:50:59;;;;;;;201.50;64.50;;;-5.80;99.90;;;;;;10239585;28;20052;-83
2021/12/27 14:56:02;;;;;;;232.50;79.80;;;-5.80;99.90;;;;;;10230561;28;20074;-83
2021/12/27 15:01:06;;;;;;;267.53;92.53;;;-5.80;99.90;;;;;;10234691;28;20043;-84
2021/12/27 15:06:07;;;;;;;300.43;92.93;;;-6.00;99.90;;;;;;10234191;28;20027;-82
2021/12/27 15:11:09;;;;;;;323.13;104.80;;;-6.10;99.90;;;;;;10243439;28;20065;-80
2021/12/27 15:16:38;;;;;;;296.83;102.67;;;-6.10;99.90;;;;;;10248692;28;20387;-85
2021/12/27 15:21:39;;;;;;;216.87;75.10;;;-6.10;99.90;;;;;;10227397;28;20019;-85
2021/12/27 15:26:40;;;;;;;180.77;57.00;;;-6.10;99.90;;;;;;10248553;28;20531;-85
2021/12/27 15:31:40;;;;;;;169.77;59.67;;;-6.20;99.90;;;;;;10248460;28;20862;-82
2021/12/27 15:36:41;;;;;;;129.63;46.30;;;-6.20;99.90;;;;;;10248399;28;20093;-83
2021/12/27 15:41:49;;;;;;;160.57;55.13;;;-6.40;99.90;;;;;;10235286;29;20026;-84
2021/12/27 15:46:50;;;;;;;137.20;49.53;;;-6.50;99.90;;;;;;10252758;28;20057;-84
2021/12/27 15:51:51;;;;;;;139.30;48.20;;;-6.60;99.90;;;;;;10272555;28;20039;-84
2021/12/27 15:56:53;;;;;;;127.40;44.90;;;-6.70;99.90;;;;;;10247477;28;20110;-83
2021/12/27 16:01:54;;;;;;;124.30;42.67;;;-6.80;99.90;;;;;;10247638;28;20163;-84
2021/12/27 16:06:54;;;;;;;124.87;45.10;;;-6.80;99.90;;;;;;10246830;29;20031;-82
2021/12/27 16:11:56;;;;;;;108.90;40.50;;;-6.70;99.90;;;;;;10247306;28;20114;-86
2021/12/27 16:16:57;;;;;;;101.73;36.27;;;-6.80;99.90;;;;;;10247868;28;20423;-85
2021/12/27 16:21:58;;;;;;;127.53;41.73;;;-6.80;99.90;;;;;;10245864;28;20074;-81
2021/12/27 16:26:59;;;;;;;173.70;50.30;;;-6.80;99.90;;;;;;10233778;28;20020;-85
2021/12/27 16:31:59;;;;;;;116.43;38.97;;;-6.90;99.90;;;;;;10249500;28;20027;-80
2021/12/27 16:37:00;;;;;;;115.93;40.70;;;-7.00;99.90;;;;;;10247492;28;20073;-83
2021/12/27 16:42:01;;;;;;;101.27;36.97;;;-7.10;99.90;;;;;;10273249;28;20034;-82
2021/12/27 16:47:03;;;;;;;104.87;37.90;;;-7.20;99.90;;;;;;10261891;28;20053;-84
2021/12/27 16:52:06;;;;;;;100.60;36.97;;;-7.10;99.90;;;;;;10242999;28;20062;-83
2021/12/27 16:57:07;;;;;;;110.33;41.30;;;-7.10;99.90;;;;;;10254961;28;20050;-83
2021/12/27 17:02:09;;;;;;;99.63;36.67;;;-7.20;99.90;;;;;;10246959;28;20491;-83
2021/12/27 17:07:10;;;;;;;107.00;38.17;;;-7.20;99.90;;;;;;10244216;28;20139;-83
2021/12/27 17:12:12;;;;;;;108.03;42.90;;;-7.20;99.90;;;;;;10246979;28;20035;-83
2021/12/27 17:17:13;;;;;;;108.80;39.43;;;-7.20;99.90;;;;;;10241705;28;20098;-82
2021/12/27 17:22:14;;;;;;;93.37;38.90;;;-7.20;99.90;;;;;;10253572;28;20430;-84
2021/12/27 17:27:15;;;;;;;98.43;39.03;;;-7.20;99.90;;;;;;10244832;28;20114;-83
2021/12/27 17:32:16;;;;;;;110.23;41.20;;;-7.20;99.90;;;;;;10255158;28;20039;-80
2021/12/27 17:37:16;;;;;;;158.70;58.40;;;-7.30;99.90;;;;;;10253815;28;20466;-81
2021/12/27 17:42:17;;;;;;;145.10;52.97;;;-7.30;99.90;;;;;;10251795;28;20043;-81
2021/12/27 17:47:18;;;;;;;112.60;42.10;;;-7.20;99.90;;;;;;10260052;28;20062;-82
2021/12/27 17:52:45;;;;;;;150.90;47.17;;;-7.10;99.90;;;;;;10257016;28;20046;-82
2021/12/27 17:57:46;;;;;;;151.30;49.90;;;-7.10;99.90;;;;;;10250049;28;20126;-84
2021/12/27 18:02:47;;;;;;;155.33;52.67;;;-7.00;99.90;;;;;;10264082;28;20560;-86
2021/12/27 18:08:10;;;;;;;108.40;38.13;;;-6.90;99.90;;;;;;10260478;28;20050;-85
2021/12/27 18:13:39;;;;;;;154.03;48.70;;;-6.80;99.90;;;;;;10233663;28;20050;-82
2021/12/27 18:19:00;;;;;;;86.30;33.20;;;-6.70;99.90;;;;;;10241609;28;20569;-90
2021/12/27 18:30:26;;;;;;;86.90;37.10;;;-6.60;99.90;;;;;;10247874;28;20031;-82
2021/12/27 18:35:26;;;;;;;99.23;40.13;;;-6.60;99.90;;;;;;10262202;28;20042;-79
2021/12/27 18:40:41;;;;;;;1003.10;192.07;;;-6.50;99.90;;;;;;10281022;28;20034;-82
2021/12/27 18:46:01;;;;;;;99.50;35.97;;;-6.40;99.90;;;;;;10232534;28;20073;-81
2021/12/27 18:51:04;;;;;;;158.20;48.57;;;-6.50;99.90;;;;;;10276270;28;20459;-81
2021/12/27 18:56:10;;;;;;;302.63;88.17;;;-6.40;99.90;;;;;;10250929;28;20527;-83
2021/12/27 19:01:12;;;;;;;322.00;97.10;;;-6.40;99.90;;;;;;10255514;28;20035;-84
2021/12/27 19:06:12;;;;;;;413.87;122.03;;;-6.40;99.90;;;;;;10249583;28;20035;-82
2021/12/27 19:11:14;;;;;;;160.17;52.50;;;-6.30;99.90;;;;;;10258645;28;20359;-83
2021/12/27 19:16:17;;;;;;;137.50;48.23;;;-6.30;99.90;;;;;;10253424;28;20045;-85
2021/12/27 19:21:19;;;;;;;203.07;84.77;;;-6.30;99.90;;;;;;10263055;28;20035;-84
2021/12/27 19:26:22;;;;;;;147.27;58.97;;;-6.20;99.90;;;;;;10286453;28;20031;-84
2021/12/27 19:31:23;;;;;;;204.23;74.30;;;-6.30;99.90;;;;;;10281009;28;20038;-88
2021/12/27 19:36:24;;;;;;;248.60;82.53;;;-6.30;99.90;;;;;;10242790;28;20039;-84
2021/12/27 19:41:25;;;;;;;775.17;335.57;;;-6.30;99.90;;;;;;10243440;28;20050;-84
2021/12/27 19:46:27;;;;;;;248.67;81.00;;;-6.20;99.90;;;;;;10253288;28;20038;-83
2021/12/27 19:51:28;;;;;;;454.27;156.47;;;-6.20;99.90;;;;;;10234681;28;20418;-84
2021/12/27 19:56:29;;;;;;;366.67;112.63;;;-6.10;99.90;;;;;;10251802;28;20043;-83
2021/12/27 20:01:29;;;;;;;296.07;89.43;;;-6.10;99.90;;;;;;10249948;28;20031;-83
2021/12/27 20:12:31;;;;;;;380.73;118.57;;;-5.90;99.90;;;;;;10243248;28;20043;-83
2021/12/27 20:18:11;;;;;;;605.93;235.20;;;-5.90;99.90;;;;;;10232270;28;20467;-84
2021/12/27 20:23:12;;;;;;;241.43;83.10;;;-5.90;99.90;;;;;;10249682;28;20114;-82
2021/12/27 20:28:12;;;;;;;281.07;87.43;;;-5.80;99.90;;;;;;10248932;28;20023;-85
2021/12/27 20:34:14;;;;;;;396.10;142.33;;;-5.80;99.90;;;;;;10245821;28;20138;-87
2021/12/27 20:39:14;;;;;;;423.43;148.00;;;-5.70;99.90;;;;;;10218584;28;20038;-85
2021/12/27 20:44:16;;;;;;;317.23;101.83;;;-5.60;99.90;;;;;;10232570;28;20027;-87
2021/12/27 20:49:17;;;;;;;220.13;73.90;;;-5.60;99.90;;;;;;10229919;28;20047;-85
2021/12/27 20:54:18;;;;;;;252.83;78.97;;;-5.60;99.90;;;;;;10250905;28;20043;-89
2021/12/27 21:05:22;;;;;;;228.40;75.20;;;-5.50;99.90;;;;;;10245514;28;20035;-86
2021/12/27 21:42:19;;;;;;;171.80;56.67;;;-5.20;99.90;;;;;;12206704;23;20087;-89
2021/12/27 21:47:20;;;;;;;146.93;51.63;;;-5.10;99.90;;;;;;10286049;28;20057;-89
2021/12/27 21:52:21;;;;;;;186.43;60.77;;;-5.10;99.90;;;;;;10289885;28;20081;-85
2021/12/27 21:57:28;;;;;;;117.03;47.50;;;-5.20;99.90;;;;;;10288019;28;20121;-87
2021/12/27 22:02:29;;;;;;;164.87;60.27;;;-5.10;99.90;;;;;;10286809;28;20031;-89
2021/12/27 22:07:33;;;;;;;188.83;66.67;;;-5.00;99.90;;;;;;10288561;28;20038;-85
2021/12/27 22:18:30;;;;;;;160.68;56.72;;;-5.00;99.90;;;;;;10176067;29;20036;-88
2021/12/27 22:23:31;;;;;;;132.37;51.43;;;-4.90;99.90;;;;;;10191604;29;20032;-87
2021/12/27 22:28:31;;;;;;;140.63;55.10;;;-5.00;99.90;;;;;;10200357;29;20040;-86
2021/12/27 22:33:32;;;;;;;132.87;50.23;;;-5.00;99.90;;;;;;10198515;29;20383;-85
2021/12/27 22:38:33;;;;;;;162.13;59.43;;;-5.00;99.90;;;;;;10200869;29;20203;-87
2021/12/27 22:43:33;;;;;;;162.37;58.87;;;-4.90;99.90;;;;;;10246081;28;20051;-88
2021/12/27 22:48:34;;;;;;;170.10;62.50;;;-4.90;99.90;;;;;;10285609;28;20093;-86
2021/12/27 22:53:35;;;;;;;158.30;57.23;;;-4.90;99.90;;;;;;10283517;28;20035;-86
2021/12/27 22:58:36;;;;;;;165.20;62.10;;;-4.80;99.90;;;;;;10287532;28;20577;-85
2021/12/27 23:03:37;;;;;;;149.60;57.57;;;-4.80;99.90;;;;;;10286786;28;20034;-86
2021/12/27 23:08:38;;;;;;;136.80;52.47;;;-4.70;99.90;;;;;;10268362;28;20085;-89
2021/12/27 23:13:39;;;;;;;151.93;56.23;;;-4.70;99.90;;;;;;10268784;28;20130;-85
2021/12/27 23:18:39;;;;;;;152.63;57.67;;;-4.60;99.90;;;;;;10282776;28;20664;-85
2021/12/27 23:23:40;;;;;;;147.73;54.17;;;-4.60;99.90;;;;;;10277006;28;20038;-89
2021/12/27 23:28:41;;;;;;;123.33;46.17;;;-4.50;99.90;;;;;;10270467;28;20049;-86
2021/12/27 23:33:46;;;;;;;117.93;46.90;;;-4.50;99.90;;;;;;10287580;28;20044;-86
2021/12/27 23:38:47;;;;;;;109.55;42.00;;;-4.50;99.90;;;;;;10287565;28;20031;-87
2021/12/27 23:43:48;;;;;;;115.77;45.87;;;-4.40;99.90;;;;;;10253954;28;20412;-86
2021/12/27 23:48:48;;;;;;;124.67;45.23;;;-4.40;99.90;;;;;;10227467;29;20045;-86
2021/12/27 23:53:49;;;;;;;107.27;40.27;;;-4.40;99.90;;;;;;10246954;28;20039;-88
2021/12/27 23:58:52;;;;;;;109.93;44.33;;;-4.40;99.90;;;;;;10230780;29;20066;-85
